Accueil
METAR-TAF:

METAR-TAF

Aéroports :

Kaltag, Alaska, États-Unis

latitude: 64-19N, longitude: 158-44W, altitude: 54 m

Observation

Le bulletin a été fait il y a 3 heures et 14 minutes, à 01:53 UTC
Vent 11 kt de nord/nord-est avec des rafales jusqu'à 18 kt
Température -9°C
Humidité 85%
Pression 991 hPa
Visibilité: 2.0 km
Ciel couvert à une hauteur de 2200 ft
neige faible, brume

METAR: PAKV 080153Z AUTO 03011G18KT 1 1/4SM -SN BR OVC022 M09/M11 A2926 RMK SLP913 P0000 T10891111 TSNO $ VIA AUTODIAL

Heure: 20:07 (05:07 UTC)


TAF: absent

Observations et prévisions météorologiques de plus de 4000 aéroports (messages METAR et TAF).

Les stations disponibles sont représentées par des disques jaunes et rouges sur la carte.

Passer la souris dessus pour voir le nom de la station.

Cliquer dessus pour voir les observations et prévisions météorologiques.

Pour changer de carte: cliquez sur les boutons verts avec une croix noire pour zoomer, sur le bouton vert avec un tiret pour effectuer un zoom arrière, ou sur les flèches vertes pour les cartes adjacentes.


METAR-TAF: